sensor_id;sensor_type;location;lat;lon;timestamp;P1;durP1;ratioP1;P2;durP2;ratioP2
16466;SDS011;8344;47.560;9.710;2023-08-08T00:01:34;0.32;;;0.32;;
16466;SDS011;8344;47.560;9.710;2023-08-08T00:04:00;0.30;;;0.30;;
16466;SDS011;8344;47.560;9.710;2023-08-08T00:06:25;0.40;;;0.40;;
16466;SDS011;8344;47.560;9.710;2023-08-08T00:08:50;0.43;;;0.43;;
16466;SDS011;8344;47.560;9.710;2023-08-08T00:11:16;0.50;;;0.50;;
16466;SDS011;8344;47.560;9.710;2023-08-08T00:13:41;0.30;;;0.30;;
16466;SDS011;8344;47.560;9.710;2023-08-08T00:16:06;0.30;;;0.30;;
16466;SDS011;8344;47.560;9.710;2023-08-08T00:18:32;0.30;;;0.30;;
16466;SDS011;8344;47.560;9.710;2023-08-08T00:20:57;0.40;;;0.40;;
16466;SDS011;8344;47.560;9.710;2023-08-08T00:23:22;0.20;;;0.20;;
16466;SDS011;8344;47.560;9.710;2023-08-08T00:25:47;0.30;;;0.30;;
16466;SDS011;8344;47.560;9.710;2023-08-08T00:28:15;0.38;;;0.38;;
16466;SDS011;8344;47.560;9.710;2023-08-08T00:30:41;0.40;;;0.40;;
16466;SDS011;8344;47.560;9.710;2023-08-08T00:33:06;0.30;;;0.30;;
16466;SDS011;8344;47.560;9.710;2023-08-08T00:35:31;0.60;;;0.60;;
16466;SDS011;8344;47.560;9.710;2023-08-08T00:37:57;0.30;;;0.30;;
16466;SDS011;8344;47.560;9.710;2023-08-08T00:40:22;0.50;;;0.50;;
16466;SDS011;8344;47.560;9.710;2023-08-08T00:42:47;0.30;;;0.30;;
16466;SDS011;8344;47.560;9.710;2023-08-08T00:45:12;0.30;;;0.30;;
16466;SDS011;8344;47.560;9.710;2023-08-08T00:47:38;0.30;;;0.30;;
16466;SDS011;8344;47.560;9.710;2023-08-08T00:50:03;0.30;;;0.30;;
16466;SDS011;8344;47.560;9.710;2023-08-08T00:52:29;0.40;;;0.40;;
16466;SDS011;8344;47.560;9.710;2023-08-08T00:54:54;0.30;;;0.30;;
16466;SDS011;8344;47.560;9.710;2023-08-08T00:57:20;0.30;;;0.30;;
16466;SDS011;8344;47.560;9.710;2023-08-08T00:59:46;0.50;;;0.50;;
16466;SDS011;8344;47.560;9.710;2023-08-08T01:02:11;0.40;;;0.40;;
16466;SDS011;8344;47.560;9.710;2023-08-08T01:04:36;0.43;;;0.43;;
16466;SDS011;8344;47.560;9.710;2023-08-08T01:09:55;0.30;;;0.30;;
16466;SDS011;8344;47.560;9.710;2023-08-08T01:12:23;0.40;;;0.40;;
16466;SDS011;8344;47.560;9.710;2023-08-08T01:14:49;0.30;;;0.30;;
16466;SDS011;8344;47.560;9.710;2023-08-08T01:17:15;0.20;;;0.20;;
16466;SDS011;8344;47.560;9.710;2023-08-08T01:19:40;0.30;;;0.30;;
16466;SDS011;8344;47.560;9.710;2023-08-08T01:22:06;0.30;;;0.30;;
16466;SDS011;8344;47.560;9.710;2023-08-08T01:24:34;0.30;;;0.30;;
16466;SDS011;8344;47.560;9.710;2023-08-08T01:27:02;0.40;;;0.40;;
16466;SDS011;8344;47.560;9.710;2023-08-08T01:29:28;0.30;;;0.30;;
16466;SDS011;8344;47.560;9.710;2023-08-08T01:31:54;0.50;;;0.50;;
16466;SDS011;8344;47.560;9.710;2023-08-08T01:34:19;0.40;;;0.40;;
16466;SDS011;8344;47.560;9.710;2023-08-08T01:36:59;0.30;;;0.30;;
16466;SDS011;8344;47.560;9.710;2023-08-08T01:39:29;0.20;;;0.20;;
16466;SDS011;8344;47.560;9.710;2023-08-08T01:41:55;0.20;;;0.20;;
16466;SDS011;8344;47.560;9.710;2023-08-08T01:44:21;0.30;;;0.30;;
16466;SDS011;8344;47.560;9.710;2023-08-08T01:46:48;0.35;;;0.35;;
16466;SDS011;8344;47.560;9.710;2023-08-08T01:49:13;0.30;;;0.30;;
16466;SDS011;8344;47.560;9.710;2023-08-08T01:51:39;0.40;;;0.40;;
16466;SDS011;8344;47.560;9.710;2023-08-08T01:54:04;0.50;;;0.50;;
16466;SDS011;8344;47.560;9.710;2023-08-08T01:56:29;0.35;;;0.35;;
16466;SDS011;8344;47.560;9.710;2023-08-08T01:58:55;0.25;;;0.25;;
16466;SDS011;8344;47.560;9.710;2023-08-08T02:01:20;0.30;;;0.30;;
16466;SDS011;8344;47.560;9.710;2023-08-08T02:03:46;0.30;;;0.30;;
16466;SDS011;8344;47.560;9.710;2023-08-08T02:06:11;0.40;;;0.40;;
16466;SDS011;8344;47.560;9.710;2023-08-08T02:08:36;0.40;;;0.40;;
16466;SDS011;8344;47.560;9.710;2023-08-08T02:11:01;0.30;;;0.30;;
16466;SDS011;8344;47.560;9.710;2023-08-08T02:13:27;0.32;;;0.32;;
16466;SDS011;8344;47.560;9.710;2023-08-08T02:15:52;0.50;;;0.50;;
16466;SDS011;8344;47.560;9.710;2023-08-08T02:18:18;0.30;;;0.30;;
16466;SDS011;8344;47.560;9.710;2023-08-08T02:20:43;0.32;;;0.32;;
16466;SDS011;8344;47.560;9.710;2023-08-08T02:23:08;0.32;;;0.32;;
16466;SDS011;8344;47.560;9.710;2023-08-08T02:25:34;0.30;;;0.30;;
16466;SDS011;8344;47.560;9.710;2023-08-08T02:27:59;0.43;;;0.43;;
16466;SDS011;8344;47.560;9.710;2023-08-08T02:30:24;0.50;;;0.50;;
16466;SDS011;8344;47.560;9.710;2023-08-08T02:32:50;0.20;;;0.20;;
16466;SDS011;8344;47.560;9.710;2023-08-08T02:35:15;0.30;;;0.30;;
16466;SDS011;8344;47.560;9.710;2023-08-08T02:37:40;0.30;;;0.30;;
16466;SDS011;8344;47.560;9.710;2023-08-08T02:40:06;0.30;;;0.30;;
16466;SDS011;8344;47.560;9.710;2023-08-08T02:42:32;0.30;;;0.30;;
16466;SDS011;8344;47.560;9.710;2023-08-08T02:44:58;0.30;;;0.30;;
16466;SDS011;8344;47.560;9.710;2023-08-08T02:47:23;0.20;;;0.20;;
16466;SDS011;8344;47.560;9.710;2023-08-08T02:49:49;0.30;;;0.30;;
16466;SDS011;8344;47.560;9.710;2023-08-08T02:52:15;0.30;;;0.30;;
16466;SDS011;8344;47.560;9.710;2023-08-08T02:54:40;0.30;;;0.30;;
16466;SDS011;8344;47.560;9.710;2023-08-08T02:57:05;0.30;;;0.30;;
16466;SDS011;8344;47.560;9.710;2023-08-08T02:59:31;0.40;;;0.40;;
16466;SDS011;8344;47.560;9.710;2023-08-08T03:01:56;0.30;;;0.30;;
16466;SDS011;8344;47.560;9.710;2023-08-08T03:04:21;0.32;;;0.32;;
16466;SDS011;8344;47.560;9.710;2023-08-08T03:06:47;0.30;;;0.30;;
16466;SDS011;8344;47.560;9.710;2023-08-08T03:09:12;0.30;;;0.30;;
16466;SDS011;8344;47.560;9.710;2023-08-08T03:11:37;0.30;;;0.30;;
16466;SDS011;8344;47.560;9.710;2023-08-08T03:14:06;0.40;;;0.40;;
16466;SDS011;8344;47.560;9.710;2023-08-08T03:16:31;0.35;;;0.35;;
16466;SDS011;8344;47.560;9.710;2023-08-08T03:18:57;0.32;;;0.32;;
16466;SDS011;8344;47.560;9.710;2023-08-08T03:21:22;0.28;;;0.28;;
16466;SDS011;8344;47.560;9.710;2023-08-08T03:23:47;0.30;;;0.30;;
16466;SDS011;8344;47.560;9.710;2023-08-08T03:26:12;0.30;;;0.30;;
16466;SDS011;8344;47.560;9.710;2023-08-08T03:28:38;0.30;;;0.30;;
16466;SDS011;8344;47.560;9.710;2023-08-08T03:31:03;0.50;;;0.50;;
16466;SDS011;8344;47.560;9.710;2023-08-08T03:33:28;0.50;;;0.50;;
16466;SDS011;8344;47.560;9.710;2023-08-08T03:35:54;0.40;;;0.40;;
16466;SDS011;8344;47.560;9.710;2023-08-08T03:38:19;0.30;;;0.30;;
16466;SDS011;8344;47.560;9.710;2023-08-08T03:40:44;0.40;;;0.40;;
16466;SDS011;8344;47.560;9.710;2023-08-08T03:43:09;0.30;;;0.30;;
16466;SDS011;8344;47.560;9.710;2023-08-08T03:45:35;0.40;;;0.40;;
16466;SDS011;8344;47.560;9.710;2023-08-08T03:48:00;0.40;;;0.40;;
16466;SDS011;8344;47.560;9.710;2023-08-08T03:50:25;0.40;;;0.40;;
16466;SDS011;8344;47.560;9.710;2023-08-08T03:52:51;0.40;;;0.40;;
16466;SDS011;8344;47.560;9.710;2023-08-08T03:55:16;0.35;;;0.35;;
16466;SDS011;8344;47.560;9.710;2023-08-08T03:57:41;0.50;;;0.50;;
16466;SDS011;8344;47.560;9.710;2023-08-08T04:00:07;0.28;;;0.28;;
16466;SDS011;8344;47.560;9.710;2023-08-08T04:02:33;0.40;;;0.40;;
16466;SDS011;8344;47.560;9.710;2023-08-08T04:04:58;0.30;;;0.30;;
16466;SDS011;8344;47.560;9.710;2023-08-08T04:07:24;0.40;;;0.40;;
16466;SDS011;8344;47.560;9.710;2023-08-08T04:09:49;0.30;;;0.30;;
16466;SDS011;8344;47.560;9.710;2023-08-08T04:12:14;0.32;;;0.32;;
16466;SDS011;8344;47.560;9.710;2023-08-08T04:14:40;0.35;;;0.35;;
16466;SDS011;8344;47.560;9.710;2023-08-08T04:17:05;0.30;;;0.30;;
16466;SDS011;8344;47.560;9.710;2023-08-08T04:19:30;0.30;;;0.30;;
16466;SDS011;8344;47.560;9.710;2023-08-08T04:21:55;0.20;;;0.20;;
16466;SDS011;8344;47.560;9.710;2023-08-08T04:24:21;0.30;;;0.30;;
16466;SDS011;8344;47.560;9.710;2023-08-08T04:26:46;0.35;;;0.35;;
16466;SDS011;8344;47.560;9.710;2023-08-08T04:29:11;0.32;;;0.32;;
16466;SDS011;8344;47.560;9.710;2023-08-08T04:31:37;0.30;;;0.30;;
16466;SDS011;8344;47.560;9.710;2023-08-08T04:34:02;0.40;;;0.40;;
16466;SDS011;8344;47.560;9.710;2023-08-08T04:36:27;0.30;;;0.30;;
16466;SDS011;8344;47.560;9.710;2023-08-08T04:38:53;0.50;;;0.50;;
16466;SDS011;8344;47.560;9.710;2023-08-08T04:41:18;0.30;;;0.30;;
16466;SDS011;8344;47.560;9.710;2023-08-08T04:43:44;0.30;;;0.30;;
16466;SDS011;8344;47.560;9.710;2023-08-08T04:46:09;0.40;;;0.40;;
16466;SDS011;8344;47.560;9.710;2023-08-08T04:48:34;0.40;;;0.40;;
16466;SDS011;8344;47.560;9.710;2023-08-08T04:51:00;0.30;;;0.30;;
16466;SDS011;8344;47.560;9.710;2023-08-08T04:53:25;0.30;;;0.30;;
16466;SDS011;8344;47.560;9.710;2023-08-08T04:55:50;0.50;;;0.50;;
16466;SDS011;8344;47.560;9.710;2023-08-08T04:58:16;0.55;;;0.55;;
16466;SDS011;8344;47.560;9.710;2023-08-08T05:00:41;0.40;;;0.40;;
16466;SDS011;8344;47.560;9.710;2023-08-08T05:03:06;0.20;;;0.20;;
16466;SDS011;8344;47.560;9.710;2023-08-08T05:05:32;0.35;;;0.35;;
16466;SDS011;8344;47.560;9.710;2023-08-08T05:07:57;0.40;;;0.40;;
16466;SDS011;8344;47.560;9.710;2023-08-08T05:10:23;0.40;;;0.40;;
16466;SDS011;8344;47.560;9.710;2023-08-08T05:12:48;0.30;;;0.30;;
16466;SDS011;8344;47.560;9.710;2023-08-08T05:15:13;0.35;;;0.35;;
16466;SDS011;8344;47.560;9.710;2023-08-08T05:17:39;0.30;;;0.30;;
16466;SDS011;8344;47.560;9.710;2023-08-08T05:20:04;0.30;;;0.30;;
16466;SDS011;8344;47.560;9.710;2023-08-08T05:22:30;0.43;;;0.43;;
16466;SDS011;8344;47.560;9.710;2023-08-08T05:24:56;0.30;;;0.30;;
16466;SDS011;8344;47.560;9.710;2023-08-08T05:27:21;0.30;;;0.30;;
16466;SDS011;8344;47.560;9.710;2023-08-08T05:29:46;0.20;;;0.20;;
16466;SDS011;8344;47.560;9.710;2023-08-08T05:32:11;0.30;;;0.30;;
16466;SDS011;8344;47.560;9.710;2023-08-08T05:34:37;0.22;;;0.22;;
16466;SDS011;8344;47.560;9.710;2023-08-08T05:37:02;0.30;;;0.30;;
16466;SDS011;8344;47.560;9.710;2023-08-08T05:39:28;0.20;;;0.20;;
16466;SDS011;8344;47.560;9.710;2023-08-08T05:41:54;0.30;;;0.30;;
16466;SDS011;8344;47.560;9.710;2023-08-08T05:44:19;0.30;;;0.30;;
16466;SDS011;8344;47.560;9.710;2023-08-08T05:46:45;0.40;;;0.40;;
16466;SDS011;8344;47.560;9.710;2023-08-08T05:49:10;0.25;;;0.25;;
16466;SDS011;8344;47.560;9.710;2023-08-08T05:51:35;0.30;;;0.30;;
16466;SDS011;8344;47.560;9.710;2023-08-08T05:54:01;0.30;;;0.30;;
16466;SDS011;8344;47.560;9.710;2023-08-08T05:56:28;0.20;;;0.20;;
16466;SDS011;8344;47.560;9.710;2023-08-08T05:59:00;0.20;;;0.20;;
16466;SDS011;8344;47.560;9.710;2023-08-08T06:01:25;0.20;;;0.20;;
16466;SDS011;8344;47.560;9.710;2023-08-08T06:03:50;0.30;;;0.30;;
16466;SDS011;8344;47.560;9.710;2023-08-08T06:06:15;0.40;;;0.40;;
16466;SDS011;8344;47.560;9.710;2023-08-08T06:08:41;0.20;;;0.20;;
16466;SDS011;8344;47.560;9.710;2023-08-08T06:11:06;0.30;;;0.30;;
16466;SDS011;8344;47.560;9.710;2023-08-08T06:13:32;0.32;;;0.32;;
16466;SDS011;8344;47.560;9.710;2023-08-08T06:15:57;0.30;;;0.30;;
16466;SDS011;8344;47.560;9.710;2023-08-08T06:18:23;0.20;;;0.20;;
16466;SDS011;8344;47.560;9.710;2023-08-08T06:20:48;0.30;;;0.30;;
16466;SDS011;8344;47.560;9.710;2023-08-08T06:23:13;0.22;;;0.22;;
16466;SDS011;8344;47.560;9.710;2023-08-08T06:25:40;0.20;;;0.20;;
16466;SDS011;8344;47.560;9.710;2023-08-08T06:28:05;0.20;;;0.20;;
16466;SDS011;8344;47.560;9.710;2023-08-08T06:30:31;0.30;;;0.30;;
16466;SDS011;8344;47.560;9.710;2023-08-08T06:32:56;0.30;;;0.30;;
16466;SDS011;8344;47.560;9.710;2023-08-08T06:35:22;0.20;;;0.20;;
16466;SDS011;8344;47.560;9.710;2023-08-08T06:37:47;0.22;;;0.22;;
16466;SDS011;8344;47.560;9.710;2023-08-08T06:40:12;0.20;;;0.20;;
16466;SDS011;8344;47.560;9.710;2023-08-08T06:42:38;0.28;;;0.28;;
16466;SDS011;8344;47.560;9.710;2023-08-08T06:45:03;0.20;;;0.20;;
16466;SDS011;8344;47.560;9.710;2023-08-08T06:47:29;0.20;;;0.20;;
16466;SDS011;8344;47.560;9.710;2023-08-08T06:49:54;0.10;;;0.10;;
16466;SDS011;8344;47.560;9.710;2023-08-08T06:52:20;0.20;;;0.20;;
16466;SDS011;8344;47.560;9.710;2023-08-08T06:54:46;0.10;;;0.10;;
16466;SDS011;8344;47.560;9.710;2023-08-08T06:57:12;0.10;;;0.10;;
16466;SDS011;8344;47.560;9.710;2023-08-08T06:59:37;0.20;;;0.20;;
16466;SDS011;8344;47.560;9.710;2023-08-08T07:02:02;0.20;;;0.20;;
16466;SDS011;8344;47.560;9.710;2023-08-08T07:04:28;0.20;;;0.20;;
16466;SDS011;8344;47.560;9.710;2023-08-08T07:06:53;0.20;;;0.20;;
16466;SDS011;8344;47.560;9.710;2023-08-08T07:09:18;0.15;;;0.15;;
16466;SDS011;8344;47.560;9.710;2023-08-08T07:11:44;0.10;;;0.10;;
16466;SDS011;8344;47.560;9.710;2023-08-08T07:14:09;0.20;;;0.20;;
16466;SDS011;8344;47.560;9.710;2023-08-08T07:16:34;0.22;;;0.22;;
16466;SDS011;8344;47.560;9.710;2023-08-08T07:18:59;0.30;;;0.30;;
16466;SDS011;8344;47.560;9.710;2023-08-08T07:21:25;0.20;;;0.20;;
16466;SDS011;8344;47.560;9.710;2023-08-08T07:23:51;0.20;;;0.20;;
16466;SDS011;8344;47.560;9.710;2023-08-08T07:26:16;0.20;;;0.20;;
16466;SDS011;8344;47.560;9.710;2023-08-08T07:28:41;0.20;;;0.20;;
16466;SDS011;8344;47.560;9.710;2023-08-08T07:31:07;0.30;;;0.30;;
16466;SDS011;8344;47.560;9.710;2023-08-08T07:33:32;0.20;;;0.20;;
16466;SDS011;8344;47.560;9.710;2023-08-08T07:35:57;0.20;;;0.20;;
16466;SDS011;8344;47.560;9.710;2023-08-08T07:38:23;0.20;;;0.20;;
16466;SDS011;8344;47.560;9.710;2023-08-08T07:40:48;0.20;;;0.20;;
16466;SDS011;8344;47.560;9.710;2023-08-08T07:43:13;0.20;;;0.20;;
16466;SDS011;8344;47.560;9.710;2023-08-08T07:45:39;0.20;;;0.20;;
16466;SDS011;8344;47.560;9.710;2023-08-08T07:48:04;0.30;;;0.30;;
16466;SDS011;8344;47.560;9.710;2023-08-08T07:50:30;0.10;;;0.10;;
16466;SDS011;8344;47.560;9.710;2023-08-08T07:52:56;0.20;;;0.20;;
16466;SDS011;8344;47.560;9.710;2023-08-08T07:55:21;0.20;;;0.20;;
16466;SDS011;8344;47.560;9.710;2023-08-08T07:57:46;0.30;;;0.30;;
16466;SDS011;8344;47.560;9.710;2023-08-08T08:00:12;0.22;;;0.22;;
16466;SDS011;8344;47.560;9.710;2023-08-08T08:02:38;0.20;;;0.20;;
16466;SDS011;8344;47.560;9.710;2023-08-08T08:05:04;0.25;;;0.25;;
16466;SDS011;8344;47.560;9.710;2023-08-08T08:07:32;0.20;;;0.20;;
16466;SDS011;8344;47.560;9.710;2023-08-08T08:09:58;0.20;;;0.20;;
16466;SDS011;8344;47.560;9.710;2023-08-08T08:12:24;0.30;;;0.30;;
16466;SDS011;8344;47.560;9.710;2023-08-08T08:14:49;0.20;;;0.20;;
16466;SDS011;8344;47.560;9.710;2023-08-08T08:17:14;0.20;;;0.20;;
16466;SDS011;8344;47.560;9.710;2023-08-08T08:19:39;0.20;;;0.20;;
16466;SDS011;8344;47.560;9.710;2023-08-08T08:22:05;0.20;;;0.20;;
16466;SDS011;8344;47.560;9.710;2023-08-08T08:24:30;0.20;;;0.20;;
16466;SDS011;8344;47.560;9.710;2023-08-08T08:26:55;0.20;;;0.20;;
16466;SDS011;8344;47.560;9.710;2023-08-08T08:29:21;0.20;;;0.20;;
16466;SDS011;8344;47.560;9.710;2023-08-08T08:31:46;0.20;;;0.20;;
16466;SDS011;8344;47.560;9.710;2023-08-08T08:34:11;0.20;;;0.20;;
16466;SDS011;8344;47.560;9.710;2023-08-08T08:36:37;0.28;;;0.28;;
16466;SDS011;8344;47.560;9.710;2023-08-08T08:39:02;0.20;;;0.20;;
16466;SDS011;8344;47.560;9.710;2023-08-08T08:41:28;0.30;;;0.30;;
16466;SDS011;8344;47.560;9.710;2023-08-08T08:43:54;0.20;;;0.20;;
16466;SDS011;8344;47.560;9.710;2023-08-08T08:46:20;0.20;;;0.20;;
16466;SDS011;8344;47.560;9.710;2023-08-08T08:48:47;0.30;;;0.30;;
16466;SDS011;8344;47.560;9.710;2023-08-08T08:51:13;0.20;;;0.20;;
16466;SDS011;8344;47.560;9.710;2023-08-08T08:53:40;0.20;;;0.20;;
16466;SDS011;8344;47.560;9.710;2023-08-08T08:56:08;0.15;;;0.15;;
16466;SDS011;8344;47.560;9.710;2023-08-08T08:58:33;0.17;;;0.17;;
16466;SDS011;8344;47.560;9.710;2023-08-08T09:00:58;0.20;;;0.20;;
16466;SDS011;8344;47.560;9.710;2023-08-08T09:03:25;0.15;;;0.15;;
16466;SDS011;8344;47.560;9.710;2023-08-08T09:05:50;0.20;;;0.20;;
16466;SDS011;8344;47.560;9.710;2023-08-08T09:08:16;0.20;;;0.20;;
16466;SDS011;8344;47.560;9.710;2023-08-08T09:10:42;0.20;;;0.20;;
16466;SDS011;8344;47.560;9.710;2023-08-08T09:13:07;0.22;;;0.22;;
16466;SDS011;8344;47.560;9.710;2023-08-08T09:15:32;0.20;;;0.20;;
16466;SDS011;8344;47.560;9.710;2023-08-08T09:17:58;0.20;;;0.20;;
16466;SDS011;8344;47.560;9.710;2023-08-08T09:20:25;0.28;;;0.28;;
16466;SDS011;8344;47.560;9.710;2023-08-08T09:22:52;0.20;;;0.20;;
16466;SDS011;8344;47.560;9.710;2023-08-08T09:25:17;0.17;;;0.17;;
16466;SDS011;8344;47.560;9.710;2023-08-08T09:27:44;0.10;;;0.10;;
16466;SDS011;8344;47.560;9.710;2023-08-08T09:30:09;0.20;;;0.20;;
16466;SDS011;8344;47.560;9.710;2023-08-08T09:32:36;0.13;;;0.13;;
16466;SDS011;8344;47.560;9.710;2023-08-08T09:35:01;0.20;;;0.20;;
16466;SDS011;8344;47.560;9.710;2023-08-08T09:37:28;0.13;;;0.13;;
16466;SDS011;8344;47.560;9.710;2023-08-08T09:39:57;0.10;;;0.10;;
16466;SDS011;8344;47.560;9.710;2023-08-08T09:42:28;0.20;;;0.20;;
16466;SDS011;8344;47.560;9.710;2023-08-08T09:44:55;0.20;;;0.20;;
16466;SDS011;8344;47.560;9.710;2023-08-08T09:47:21;0.17;;;0.17;;
16466;SDS011;8344;47.560;9.710;2023-08-08T09:49:47;0.10;;;0.10;;
16466;SDS011;8344;47.560;9.710;2023-08-08T09:52:12;0.22;;;0.22;;
16466;SDS011;8344;47.560;9.710;2023-08-08T09:54:38;0.10;;;0.10;;
16466;SDS011;8344;47.560;9.710;2023-08-08T09:57:04;0.15;;;0.15;;
16466;SDS011;8344;47.560;9.710;2023-08-08T09:59:30;0.20;;;0.20;;
16466;SDS011;8344;47.560;9.710;2023-08-08T10:01:55;0.20;;;0.20;;
16466;SDS011;8344;47.560;9.710;2023-08-08T10:04:22;0.20;;;0.20;;
16466;SDS011;8344;47.560;9.710;2023-08-08T10:06:47;0.10;;;0.10;;
16466;SDS011;8344;47.560;9.710;2023-08-08T10:09:13;0.10;;;0.10;;
16466;SDS011;8344;47.560;9.710;2023-08-08T10:11:38;0.10;;;0.10;;
16466;SDS011;8344;47.560;9.710;2023-08-08T10:14:06;0.10;;;0.10;;
16466;SDS011;8344;47.560;9.710;2023-08-08T10:16:36;0.20;;;0.20;;
16466;SDS011;8344;47.560;9.710;2023-08-08T10:19:03;0.20;;;0.20;;
16466;SDS011;8344;47.560;9.710;2023-08-08T10:21:37;0.10;;;0.10;;
16466;SDS011;8344;47.560;9.710;2023-08-08T10:24:06;0.10;;;0.10;;
16466;SDS011;8344;47.560;9.710;2023-08-08T10:26:33;0.10;;;0.10;;
16466;SDS011;8344;47.560;9.710;2023-08-08T10:28:59;0.10;;;0.10;;
16466;SDS011;8344;47.560;9.710;2023-08-08T10:31:25;0.13;;;0.13;;
16466;SDS011;8344;47.560;9.710;2023-08-08T10:34:00;0.10;;;0.10;;
16466;SDS011;8344;47.560;9.710;2023-08-08T10:36:42;0.10;;;0.10;;
16466;SDS011;8344;47.560;9.710;2023-08-08T10:39:10;0.10;;;0.10;;
16466;SDS011;8344;47.560;9.710;2023-08-08T10:41:43;0.10;;;0.10;;
16466;SDS011;8344;47.560;9.710;2023-08-08T10:44:10;0.10;;;0.10;;
16466;SDS011;8344;47.560;9.710;2023-08-08T10:46:35;0.17;;;0.17;;
16466;SDS011;8344;47.560;9.710;2023-08-08T10:49:05;0.10;;;0.10;;
16466;SDS011;8344;47.560;9.710;2023-08-08T10:54:04;0.10;;;0.10;;
16466;SDS011;8344;47.560;9.710;2023-08-08T10:56:30;0.10;;;0.10;;
16466;SDS011;8344;47.560;9.710;2023-08-08T10:58:56;0.20;;;0.20;;
16466;SDS011;8344;47.560;9.710;2023-08-08T11:01:24;0.15;;;0.15;;
16466;SDS011;8344;47.560;9.710;2023-08-08T11:03:50;0.15;;;0.15;;
16466;SDS011;8344;47.560;9.710;2023-08-08T11:06:15;0.10;;;0.10;;
16466;SDS011;8344;47.560;9.710;2023-08-08T11:08:41;0.20;;;0.20;;
16466;SDS011;8344;47.560;9.710;2023-08-08T11:11:06;0.20;;;0.20;;
16466;SDS011;8344;47.560;9.710;2023-08-08T11:13:31;0.25;;;0.25;;
16466;SDS011;8344;47.560;9.710;2023-08-08T11:15:57;0.10;;;0.10;;
16466;SDS011;8344;47.560;9.710;2023-08-08T11:18:23;0.10;;;0.10;;
16466;SDS011;8344;47.560;9.710;2023-08-08T11:20:49;0.20;;;0.20;;
16466;SDS011;8344;47.560;9.710;2023-08-08T11:23:14;0.20;;;0.20;;
16466;SDS011;8344;47.560;9.710;2023-08-08T11:25:41;0.13;;;0.13;;
16466;SDS011;8344;47.560;9.710;2023-08-08T11:28:07;0.10;;;0.10;;
16466;SDS011;8344;47.560;9.710;2023-08-08T11:30:34;0.10;;;0.10;;
16466;SDS011;8344;47.560;9.710;2023-08-08T11:33:01;0.10;;;0.10;;
16466;SDS011;8344;47.560;9.710;2023-08-08T11:35:26;0.10;;;0.10;;
16466;SDS011;8344;47.560;9.710;2023-08-08T11:37:52;0.10;;;0.10;;
16466;SDS011;8344;47.560;9.710;2023-08-08T11:40:18;0.20;;;0.20;;
16466;SDS011;8344;47.560;9.710;2023-08-08T11:42:45;0.30;;;0.30;;
16466;SDS011;8344;47.560;9.710;2023-08-08T11:45:11;0.20;;;0.20;;
16466;SDS011;8344;47.560;9.710;2023-08-08T11:47:38;0.10;;;0.10;;
16466;SDS011;8344;47.560;9.710;2023-08-08T11:50:05;0.13;;;0.13;;
16466;SDS011;8344;47.560;9.710;2023-08-08T11:52:31;0.20;;;0.20;;
16466;SDS011;8344;47.560;9.710;2023-08-08T11:54:59;0.20;;;0.20;;
16466;SDS011;8344;47.560;9.710;2023-08-08T11:57:25;0.20;;;0.20;;
16466;SDS011;8344;47.560;9.710;2023-08-08T11:59:52;0.28;;;0.28;;
16466;SDS011;8344;47.560;9.710;2023-08-08T12:02:18;0.13;;;0.13;;
16466;SDS011;8344;47.560;9.710;2023-08-08T12:04:46;0.20;;;0.20;;
16466;SDS011;8344;47.560;9.710;2023-08-08T12:07:12;0.20;;;0.20;;
16466;SDS011;8344;47.560;9.710;2023-08-08T12:09:37;0.20;;;0.20;;
16466;SDS011;8344;47.560;9.710;2023-08-08T12:12:03;0.20;;;0.20;;
16466;SDS011;8344;47.560;9.710;2023-08-08T12:14:29;0.20;;;0.20;;
16466;SDS011;8344;47.560;9.710;2023-08-08T12:16:54;0.10;;;0.10;;
16466;SDS011;8344;47.560;9.710;2023-08-08T12:19:22;0.10;;;0.10;;
16466;SDS011;8344;47.560;9.710;2023-08-08T12:21:49;0.15;;;0.15;;
16466;SDS011;8344;47.560;9.710;2023-08-08T12:24:14;0.20;;;0.20;;
16466;SDS011;8344;47.560;9.710;2023-08-08T12:26:40;0.20;;;0.20;;
16466;SDS011;8344;47.560;9.710;2023-08-08T12:29:05;0.10;;;0.10;;
16466;SDS011;8344;47.560;9.710;2023-08-08T12:31:30;0.10;;;0.10;;
16466;SDS011;8344;47.560;9.710;2023-08-08T12:33:56;0.10;;;0.10;;
16466;SDS011;8344;47.560;9.710;2023-08-08T12:36:21;0.10;;;0.10;;
16466;SDS011;8344;47.560;9.710;2023-08-08T12:38:46;0.17;;;0.17;;
16466;SDS011;8344;47.560;9.710;2023-08-08T12:41:12;0.17;;;0.17;;
16466;SDS011;8344;47.560;9.710;2023-08-08T12:43:38;0.10;;;0.10;;
16466;SDS011;8344;47.560;9.710;2023-08-08T12:46:03;0.10;;;0.10;;
16466;SDS011;8344;47.560;9.710;2023-08-08T12:48:29;0.13;;;0.13;;
16466;SDS011;8344;47.560;9.710;2023-08-08T12:50:54;0.10;;;0.10;;
16466;SDS011;8344;47.560;9.710;2023-08-08T12:53:20;0.17;;;0.17;;
16466;SDS011;8344;47.560;9.710;2023-08-08T12:55:45;0.20;;;0.20;;
16466;SDS011;8344;47.560;9.710;2023-08-08T12:58:11;0.20;;;0.20;;
16466;SDS011;8344;47.560;9.710;2023-08-08T13:00:37;0.20;;;0.20;;
16466;SDS011;8344;47.560;9.710;2023-08-08T13:03:03;0.10;;;0.10;;
16466;SDS011;8344;47.560;9.710;2023-08-08T13:05:28;0.10;;;0.10;;
16466;SDS011;8344;47.560;9.710;2023-08-08T13:07:54;0.10;;;0.10;;
16466;SDS011;8344;47.560;9.710;2023-08-08T13:10:19;0.10;;;0.10;;
16466;SDS011;8344;47.560;9.710;2023-08-08T13:12:45;0.10;;;0.10;;
16466;SDS011;8344;47.560;9.710;2023-08-08T13:15:11;0.20;;;0.20;;
16466;SDS011;8344;47.560;9.710;2023-08-08T13:17:36;0.10;;;0.10;;
16466;SDS011;8344;47.560;9.710;2023-08-08T13:20:01;0.10;;;0.10;;
16466;SDS011;8344;47.560;9.710;2023-08-08T13:22:27;0.10;;;0.10;;
16466;SDS011;8344;47.560;9.710;2023-08-08T13:24:52;0.10;;;0.10;;
16466;SDS011;8344;47.560;9.710;2023-08-08T13:27:18;0.10;;;0.10;;
16466;SDS011;8344;47.560;9.710;2023-08-08T13:29:43;0.10;;;0.10;;
16466;SDS011;8344;47.560;9.710;2023-08-08T13:32:08;0.00;;;0.00;;
16466;SDS011;8344;47.560;9.710;2023-08-08T13:34:33;0.10;;;0.10;;
16466;SDS011;8344;47.560;9.710;2023-08-08T13:36:59;0.20;;;0.20;;
16466;SDS011;8344;47.560;9.710;2023-08-08T13:39:24;0.20;;;0.20;;
16466;SDS011;8344;47.560;9.710;2023-08-08T13:41:49;0.10;;;0.10;;
16466;SDS011;8344;47.560;9.710;2023-08-08T13:44:15;0.17;;;0.17;;
16466;SDS011;8344;47.560;9.710;2023-08-08T13:46:40;0.20;;;0.20;;
16466;SDS011;8344;47.560;9.710;2023-08-08T13:49:05;0.15;;;0.15;;
16466;SDS011;8344;47.560;9.710;2023-08-08T13:51:31;0.10;;;0.10;;
16466;SDS011;8344;47.560;9.710;2023-08-08T13:53:56;0.10;;;0.10;;
16466;SDS011;8344;47.560;9.710;2023-08-08T13:56:21;0.10;;;0.10;;
16466;SDS011;8344;47.560;9.710;2023-08-08T13:58:47;0.10;;;0.10;;
16466;SDS011;8344;47.560;9.710;2023-08-08T14:01:12;0.10;;;0.10;;
16466;SDS011;8344;47.560;9.710;2023-08-08T14:03:37;0.10;;;0.10;;
16466;SDS011;8344;47.560;9.710;2023-08-08T14:06:03;0.03;;;0.03;;
16466;SDS011;8344;47.560;9.710;2023-08-08T14:08:28;0.15;;;0.15;;
16466;SDS011;8344;47.560;9.710;2023-08-08T14:10:54;0.20;;;0.20;;
16466;SDS011;8344;47.560;9.710;2023-08-08T14:13:19;0.10;;;0.10;;
16466;SDS011;8344;47.560;9.710;2023-08-08T14:15:45;0.15;;;0.15;;
16466;SDS011;8344;47.560;9.710;2023-08-08T14:18:10;0.10;;;0.10;;
16466;SDS011;8344;47.560;9.710;2023-08-08T14:20:36;0.20;;;0.20;;
16466;SDS011;8344;47.560;9.710;2023-08-08T14:23:01;0.10;;;0.10;;
16466;SDS011;8344;47.560;9.710;2023-08-08T14:25:27;0.10;;;0.10;;
16466;SDS011;8344;47.560;9.710;2023-08-08T14:27:54;0.20;;;0.20;;
16466;SDS011;8344;47.560;9.710;2023-08-08T14:30:21;0.10;;;0.10;;
16466;SDS011;8344;47.560;9.710;2023-08-08T14:32:47;0.10;;;0.10;;
16466;SDS011;8344;47.560;9.710;2023-08-08T14:35:12;0.20;;;0.20;;
16466;SDS011;8344;47.560;9.710;2023-08-08T14:37:37;0.17;;;0.17;;
16466;SDS011;8344;47.560;9.710;2023-08-08T14:40:03;0.10;;;0.10;;
16466;SDS011;8344;47.560;9.710;2023-08-08T14:42:29;0.20;;;0.20;;
16466;SDS011;8344;47.560;9.710;2023-08-08T14:44:54;0.13;;;0.13;;
16466;SDS011;8344;47.560;9.710;2023-08-08T14:47:19;0.10;;;0.10;;
16466;SDS011;8344;47.560;9.710;2023-08-08T14:49:44;0.10;;;0.10;;
16466;SDS011;8344;47.560;9.710;2023-08-08T14:52:10;0.20;;;0.20;;
16466;SDS011;8344;47.560;9.710;2023-08-08T14:54:36;0.10;;;0.10;;
16466;SDS011;8344;47.560;9.710;2023-08-08T14:57:01;0.08;;;0.08;;